x

Isle Of Shoals, Nh (iosn3) Weather Station

3:00 - Fri 30th Sep 2016 All times are EDT. -4 hours from GMT.

  • Wind
    24mph, 26mph gusts
  • Ar Temp 57°f
  • Sea Pressure 1031.6mb
  • Isle Of Shoals, Nh
  • Isle Of Shoals, Nh

More Historic Weather Station data

Upgrade to MSW Pro to gain access to the past 30 days of data for over 8000 Wavebouys and Weather Stations around the globe.

Join Pro

Comparision Forecast

View Surf forecast
   
Sex 09/30 3:00 24 26 mph 1031.6mb 57f
2:00 22 24 mph 1032.1mb 57f
1:00 22 24 mph 1032.6mb 57f
12:00 20 22 mph 1033mb 58f
Qui 09/29 11:00 25 28 mph 1032.8mb 58f
10:00 22 24 mph 1032.7mb 58f
9:00 18 21 mph 1032.7mb 58f
8:00 21 22 mph 1032.4mb 57f
7:00 20 21 mph 1032.3mb 57f
6:00 20 22 mph 1032.3mb 57f
5:00 21 22 mph 1032.4mb 57f
4:00 21 24 mph 1032.2mb 57f
3:00 22 24 mph 1032.2mb 57f
2:00 22 23 mph 1032.3mb 56f
1:00 22 24 mph 1032.9mb 55f
12:00 23 25 mph 1032.6mb 54f
11:00 23 28 mph 1032.4mb 53f
10:00 26 29 mph 1032.2mb 53f
9:00 26 31 mph 1031.6mb 53f
8:00 24 28 mph 1031.2mb 52f
7:00 22 25 mph 1030.5mb 53f
6:00 24 30 mph 1029.7mb 55f
5:00 25 28 mph 1029.1mb 55f
4:00 23 28 mph 1028.6mb 56f
3:00 26 32 mph 1027.8mb 57f
2:00 32 34 mph 1027.5mb 57f
1:00 34 38 mph 1027.5mb 58f
12:00 34 39 mph 1027.4mb 58f
Qua 09/28 11:00 39 44 mph 1026.8mb 59f
10:00 32 36 mph 1027mb 59f
9:00 30 32 mph 1026.5mb 59f
8:00 29 33 mph 1025.7mb 59f
7:00 28 32 mph 1025.5mb 58f
6:00 25 28 mph 1025.3mb 58f
5:00 20 23 mph 1025.3mb 57f
4:00 28 31 mph 1024.4mb 57f
3:00 24 28 mph 1024.9mb 55f
2:00 29 31 mph 1024.3mb 55f
1:00 29 33 mph 1024.3mb 55f
12:00 28 30 mph 1024mb 55f
11:00 29 32 mph 1023.9mb 55f
10:00 24 26 mph 1023.9mb 56f
9:00 25 28 mph 1023.3mb 55f
8:00 22 25 mph 1022.4mb 56f
7:00 21 25 mph 1021.6mb 56f
6:00 25 26 mph 1020.8mb 56f
5:00 24 25 mph 1020.1mb 58f
4:00 23 24 mph 1019.3mb 59f
3:00 22 24 mph 1018.8mb 59f
2:00 24 25 mph 1018.1mb 60f
1:00 18 20 mph 1017.6mb 60f
12:00 14 15 mph 1017mb 61f
Ter 09/27 11:00 11 13 mph 1016.4mb 61f
10:00 13 15 mph 1015.6mb 61f
9:00 11 13 mph 1015mb 62f
8:00 11 13 mph 1014.3mb 62f
7:00 11 13 mph 1013.2mb 62f
6:00 10
mph
1012.8mb 62f
5:00 10
mph
1012.5mb 63f
4:00 7
mph
1012.1mb 64f
3:00 2
mph
1011.9mb 65f
2:00 2
mph
1011.6mb 64f
1:00 6 7 mph 1011.7mb 63f
12:00 3
mph
1012mb 61f
11:00 1 2 mph 1012.1mb 60f
10:00 3
mph
1012mb 60f
9:00 6 7 mph 1012.3mb 59f
8:00 9 10 mph 1012.6mb 59f
7:00 10 11 mph 1012.6mb 59f
6:00 18 21 mph 1012.5mb 59f
5:00 20 22 mph 1012.5mb 62f
4:00 23 26 mph 1013.1mb 62f
3:00 23 24 mph 1013.6mb 61f
2:00 23 25 mph 1014.5mb 61f
1:00 24 26 mph 1015.1mb 61f
12:00 23 25 mph 1016mb 61f
Seg 09/26 11:00 26 29 mph 1016.5mb 60f
10:00 24 26 mph 1016.9mb 61f
9:00 23 25 mph 1017.2mb 61f
8:00 24 25 mph 1017.6mb 60f
7:00 22 24 mph 1018.1mb 58f
6:00 21 22 mph 1018.3mb 58f
5:00 20 21 mph 1018.7mb 58f
4:00 17 18 mph 1019.2mb 57f
3:00 16 18 mph 1020.1mb 57f
2:00 9
mph
1020.5mb 57f
1:00 10 11 mph 1021.2mb 57f
12:00 6 7 mph 1022.1mb 57f
11:00 5 6 mph 1022.5mb 56f
10:00 7
mph
1022.9mb 53f
9:00 8 9 mph 1022.8mb 52f